Ardenvoir, WA

3:59 AM PDT on September 30, 2014 (GMT -0700)
Pangborn Memorial | Change Station
CLOSE
Current Station
Airport
Location: Wenatchee,
Elevation: 1247 ft
Nearby Weather Stations

Elev 1247 ft 47.40 °N, 120.21 °W | Updated 1 hour ago

Partly Cloudy
Partly Cloudy
58 °F
Feels Like 58 °F
N
17
Wind Variable Wind from WNW

Today
High -- | Low -- °F
--% Chance of Precip.
Yesterday
High -- | Low -- °F
Precip. -- in
6:59 AM 6:42 PM
Waxing Crescent, 35% visible
Pressure 29.81 in
Visibility 10.0 miles
Clouds Clear
Dew Point 37 °F
Humidity 46%
Rainfall 0.00 in
Snow Depth 0 in , 0 in , 0 in
UV 0 out of 12
Pollen 2.40 out of 12
Air Quality Not available.
Flu Activity Not available.
METAR KEAT 300955Z AUTO 30015KT 10SM CLR 14/03 A2983 RMK AO2 SLP094 T01440028

More Conditions Fewer Conditions

Pressure 29.81 in
Visibility 10.0 miles
Clouds Clear
Dew Point 37 °F
Humidity 46%
Rainfall 0.00 in
Snow Depth 0 in , 0 in , 0 in
UV 0 out of 12
Pollen 2.40 out of 12
Air Quality Not available.
Flu Activity Not available.
METAR KEAT 300955Z AUTO 30015KT 10SM CLR 14/03 A2983 RMK AO2 SLP094 T01440028

More Conditions Fewer Conditions

10-Day Weather Forecast

Almanac

Astronomy

Sep. 30, 2014 Rise Set
Actual Time 6:59 AM PDT 6:42 PM PDT
Civil Twilight 6:28 AM PDT 7:13 PM PDT
Nautical Twilight 5:52 AM PDT 7:49 PM PDT
Astronomical Twilight 5:16 AM PDT 8:25 PM PDT
Moon 1:31 PM PDT 10:58 PM PDT
Length of Visible Light 12h 44m
Length of Day
11h 43m
Tomorrow will be 3m 25s shorter.
Waxing Crescent, 35% of the Moon is Illuminated
Today
Waxing Crescent
Oct 1
First Quarter
Oct 8
Full
Oct 15
Last Quarter
Oct 23
New

Today's Extremes

State Highs State Lows

Community

WunderPhotos

Upload Photos

1,757,609 photos uploaded!

WunderBlogs® & News

Nearby

Snow Depth

Station Depth Elevation
White Pass E.S. 0 in 4500 ft
Mount Gardner 0 in 3000 ft
Alpine Meadows 0 in 3500 ft
Skookum Creek 0 in 3920 ft
Pigtail Peak 0 in 5900 ft

Earthquake Activity

City Distance Mag. Time & Date
No recent earthquake activity has been reported nearby.
Minimum magnitude displayed is 2.5.

Coastal Water Temperatures

Place Temperature
No Stations Reporting

Nearby Weather Stations